Time;durP1;ratioP1;P1;durP2;ratioP2;P2;SDS_P1;SDS_P2;PMS_P1;PMS_P2;Temp;Humidity;BMP_temperature;BMP_pressure;BME280_temperature;BME280_humidity;BME280_pressure;Samples;Min_cycle;Max_cycle;Signal;HPM_P1;HPM_P2
2022/10/31 00:01:18;;;;;;;11.63;6.18;;;13.60;99.90;;;;;;5019127;28;20149;-70
2022/10/31 00:03:43;;;;;;;16.38;6.28;;;13.60;99.90;;;;;;5019578;28;20049;-71
2022/10/31 00:06:09;;;;;;;11.63;5.38;;;13.50;99.90;;;;;;5014864;28;20388;-70
2022/10/31 00:08:35;;;;;;;13.15;6.38;;;13.40;99.90;;;;;;5021892;28;20127;-70
2022/10/31 00:11:00;;;;;;;14.82;5.95;;;13.50;99.90;;;;;;5023389;28;20329;-70
2022/10/31 00:13:26;;;;;;;9.77;5.38;;;13.40;99.90;;;;;;5004899;28;20049;-69
2022/10/31 00:15:52;;;;;;;12.10;5.72;;;13.40;99.90;;;;;;5020227;28;20191;-69
2022/10/31 00:18:17;;;;;;;13.03;5.50;;;13.40;99.90;;;;;;5025606;28;20111;-69
2022/10/31 00:20:43;;;;;;;11.77;5.68;;;13.40;99.90;;;;;;5023943;28;20096;-69
2022/10/31 00:23:10;;;;;;;9.83;5.57;;;13.40;99.90;;;;;;5028211;28;20045;-69
2022/10/31 00:25:38;;;;;;;13.70;6.32;;;13.30;99.90;;;;;;5024061;28;20116;-69
2022/10/31 00:28:05;;;;;;;14.75;5.18;;;13.30;99.90;;;;;;5025435;28;20114;-69
2022/10/31 00:30:32;;;;;;;10.07;5.57;;;13.30;99.90;;;;;;5024216;28;20069;-69
2022/10/31 00:33:02;;;;;;;10.75;5.90;;;13.30;99.90;;;;;;5029589;28;20136;-69
2022/10/31 00:35:28;;;;;;;8.73;5.72;;;13.30;99.90;;;;;;5020181;28;20051;-69
2022/10/31 00:37:53;;;;;;;12.73;5.33;;;13.20;99.90;;;;;;5024747;28;20382;-69
2022/10/31 00:40:19;;;;;;;14.73;5.53;;;13.20;99.90;;;;;;5028314;28;20285;-69
2022/10/31 00:42:44;;;;;;;12.10;5.37;;;13.20;99.90;;;;;;5028751;28;20037;-69
2022/10/31 00:45:11;;;;;;;11.93;6.13;;;13.10;99.90;;;;;;5025108;28;20284;-69
2022/10/31 00:47:37;;;;;;;8.30;5.03;;;13.10;99.90;;;;;;5025605;28;20663;-69
2022/10/31 00:50:04;;;;;;;12.68;5.55;;;13.10;99.90;;;;;;5025731;28;20463;-69
2022/10/31 00:52:29;;;;;;;11.05;5.07;;;13.10;99.90;;;;;;5029262;28;20131;-69
2022/10/31 00:54:55;;;;;;;10.02;5.55;;;13.10;99.90;;;;;;5026548;28;20124;-69
2022/10/31 00:57:21;;;;;;;10.27;5.60;;;13.00;99.90;;;;;;5028590;28;20125;-69
2022/10/31 00:59:46;;;;;;;9.63;5.00;;;13.00;99.90;;;;;;5028347;28;20391;-69
2022/10/31 01:02:12;;;;;;;10.60;5.50;;;13.10;99.90;;;;;;5024857;28;20048;-69
2022/10/31 01:04:37;;;;;;;9.45;5.05;;;13.00;99.90;;;;;;5024944;28;20283;-69
2022/10/31 01:07:03;;;;;;;9.93;5.60;;;13.00;99.90;;;;;;5024471;28;20521;-69
2022/10/31 01:09:29;;;;;;;9.77;5.67;;;13.00;99.90;;;;;;5025529;28;20946;-69
2022/10/31 01:11:54;;;;;;;10.23;5.43;;;12.90;99.90;;;;;;5029877;28;20073;-69
2022/10/31 01:14:20;;;;;;;11.03;5.67;;;13.00;99.90;;;;;;5024229;28;20053;-69
2022/10/31 01:16:45;;;;;;;9.17;5.43;;;12.90;99.90;;;;;;5021503;28;20072;-69
2022/10/31 01:19:11;;;;;;;9.93;5.67;;;12.90;99.90;;;;;;5024258;28;20791;-69
2022/10/31 01:21:36;;;;;;;10.20;5.70;;;12.90;99.90;;;;;;5025442;28;20953;-69
2022/10/31 01:24:02;;;;;;;13.33;5.67;;;12.90;99.90;;;;;;5024668;28;20156;-69
2022/10/31 01:26:30;;;;;;;12.00;5.45;;;12.90;99.90;;;;;;5014580;28;20084;-69
2022/10/31 01:29:07;;;;;;;8.30;5.20;;;12.90;99.90;;;;;;5019826;28;20521;-69
2022/10/31 01:31:37;;;;;;;;;;;12.90;99.90;;;;;;5020326;28;20041;-69
2022/10/31 01:34:03;;;;;;;9.95;5.65;;;12.90;99.90;;;;;;5023827;28;19917;-69
2022/10/31 01:36:30;;;;;;;;;;;12.80;99.90;;;;;;5019558;28;20042;-69
2022/10/31 01:39:02;;;;;;;9.45;5.28;;;12.80;99.90;;;;;;5022653;28;19917;-69
2022/10/31 01:41:32;;;;;;;10.20;5.60;;;12.80;99.90;;;;;;5024821;28;20435;-69
2022/10/31 01:43:59;;;;;;;11.48;6.15;;;12.80;99.90;;;;;;5017765;28;20153;-70
2022/10/31 01:46:35;;;;;;;12.15;5.70;;;12.80;99.90;;;;;;5021993;28;20042;-69
2022/10/31 01:49:12;;;;;;;11.77;5.95;;;12.80;99.90;;;;;;5022262;28;20119;-69
2022/10/31 01:51:44;;;;;;;11.77;6.00;;;12.80;99.90;;;;;;5023179;28;20052;-69
2022/10/31 01:54:14;;;;;;;14.30;5.47;;;12.80;99.90;;;;;;5023491;28;20268;-69
2022/10/31 01:56:47;;;;;;;14.50;6.15;;;12.70;99.90;;;;;;5021300;28;20060;-69
2022/10/31 01:59:17;;;;;;;13.73;6.43;;;12.70;99.90;;;;;;5023241;28;20597;-69
2022/10/31 02:01:42;;;;;;;10.70;6.13;;;12.80;99.90;;;;;;5019219;28;20043;-69
2022/10/31 02:04:08;;;;;;;13.95;6.43;;;12.80;99.90;;;;;;5022484;28;20037;-69
2022/10/31 02:06:44;;;;;;;13.30;6.25;;;12.70;99.90;;;;;;5018661;28;20103;-69
2022/10/31 02:09:12;;;;;;;14.60;5.90;;;12.70;99.90;;;;;;5020507;28;20052;-69
2022/10/31 02:11:38;;;;;;;12.52;6.68;;;12.70;99.90;;;;;;5024383;28;20039;-69
2022/10/31 02:14:04;;;;;;;15.68;6.20;;;12.70;99.90;;;;;;5019062;28;20045;-69
2022/10/31 02:16:29;;;;;;;11.47;5.77;;;12.70;99.90;;;;;;5018886;28;20041;-69
2022/10/31 02:18:56;;;;;;;13.20;6.90;;;12.60;99.90;;;;;;5020808;28;20283;-69
2022/10/31 02:21:49;;;;;;;11.45;6.60;;;12.70;99.90;;;;;;5022313;28;20049;-69
2022/10/31 02:24:53;;;;;;;12.02;6.32;;;12.60;99.90;;;;;;5019486;28;20042;-69
2022/10/31 02:27:51;;;;;;;10.57;6.18;;;12.60;99.90;;;;;;5023946;28;20368;-69
2022/10/31 02:30:23;;;;;;;;;;;12.60;99.90;;;;;;4984320;28;20049;-69
2022/10/31 02:32:54;;;;;;;11.57;5.20;;;12.50;99.90;;;;;;5018274;28;19967;-69
2022/10/31 02:35:38;;;;;;;11.23;6.47;;;12.50;99.90;;;;;;5019390;28;20412;-69
2022/10/31 02:38:25;;;;;;;15.10;6.18;;;12.50;99.90;;;;;;5017147;28;20043;-69
2022/10/31 02:40:59;;;;;;;13.52;6.90;;;12.50;99.90;;;;;;5022778;28;20442;-69
2022/10/31 02:43:29;;;;;;;13.45;6.38;;;12.50;99.90;;;;;;5015038;28;20041;-69
2022/10/31 02:46:02;;;;;;;12.02;5.82;;;12.40;99.90;;;;;;5018034;28;20049;-69
2022/10/31 02:48:30;;;;;;;9.95;5.65;;;12.40;99.90;;;;;;5018187;28;20391;-69
2022/10/31 02:51:00;;;;;;;10.38;6.03;;;12.40;99.90;;;;;;5014645;28;20072;-69
2022/10/31 02:53:26;;;;;;;9.13;5.38;;;12.40;99.90;;;;;;5021096;28;20041;-69
2022/10/31 02:55:51;;;;;;;12.60;5.30;;;12.40;99.90;;;;;;5020634;28;20049;-70
2022/10/31 02:58:22;;;;;;;12.07;5.83;;;12.40;99.90;;;;;;5021540;28;20328;-69
2022/10/31 03:01:03;;;;;;;9.60;5.20;;;12.40;99.90;;;;;;5034871;22;20396;-72
2022/10/31 03:03:51;;;;;;;11.25;5.72;;;12.40;99.90;;;;;;4993991;28;20306;-72
2022/10/31 03:06:23;;;;;;;;;;;12.40;99.90;;;;;;4987105;28;20051;-72
2022/10/31 03:09:22;;;;;;;10.00;5.78;;;12.30;99.90;;;;;;4993075;28;19954;-72
2022/10/31 03:12:12;;;;;;;9.82;4.80;;;12.30;99.90;;;;;;4961160;28;20582;-72
2022/10/31 03:14:41;;;;;;;10.20;5.22;;;12.30;99.90;;;;;;4985478;28;20073;-72
2022/10/31 03:17:15;;;;;;;9.77;5.30;;;12.20;99.90;;;;;;4989061;28;20050;-72
2022/10/31 03:19:45;;;;;;;12.25;5.45;;;12.20;99.90;;;;;;4984911;28;20194;-72
2022/10/31 03:22:26;;;;;;;13.48;5.28;;;12.20;99.90;;;;;;4994520;28;20125;-72
2022/10/31 03:24:54;;;;;;;10.57;5.78;;;12.20;99.90;;;;;;4975764;28;20042;-72
2022/10/31 03:27:26;;;;;;;11.95;5.47;;;12.10;99.90;;;;;;4992461;28;20047;-72
2022/10/31 03:29:57;;;;;;;9.02;5.07;;;12.20;99.90;;;;;;4984517;28;20049;-72
2022/10/31 03:32:28;;;;;;;14.65;5.90;;;12.10;99.90;;;;;;4986192;28;20188;-72
2022/10/31 03:34:57;;;;;;;8.73;5.22;;;12.10;99.90;;;;;;4986468;28;20319;-72
2022/10/31 03:37:27;;;;;;;10.70;4.97;;;12.10;99.90;;;;;;4982677;28;20156;-73
2022/10/31 03:39:54;;;;;;;12.13;5.43;;;12.10;99.90;;;;;;4969750;28;20050;-72
2022/10/31 03:42:29;;;;;;;10.90;5.90;;;12.10;99.90;;;;;;4986087;28;20045;-72
2022/10/31 03:45:14;;;;;;;10.57;5.43;;;12.10;99.90;;;;;;4978888;28;20112;-72
2022/10/31 03:47:42;;;;;;;11.52;5.90;;;12.10;99.90;;;;;;4988540;28;20331;-72
2022/10/31 03:50:10;;;;;;;14.18;5.18;;;12.10;99.90;;;;;;4987851;28;20543;-72
2022/10/31 03:53:04;;;;;;;10.23;5.50;;;12.10;99.90;;;;;;4995022;28;20046;-72
2022/10/31 03:55:41;;;;;;;10.75;5.22;;;12.10;99.90;;;;;;4957230;28;20584;-72
2022/10/31 03:58:12;;;;;;;9.13;5.38;;;12.00;99.90;;;;;;4987266;28;20038;-72
2022/10/31 04:00:44;;;;;;;8.55;5.20;;;12.00;99.90;;;;;;4985847;28;20055;-72
2022/10/31 04:03:17;;;;;;;11.80;5.45;;;12.00;99.90;;;;;;4982047;28;20120;-72
2022/10/31 04:05:46;;;;;;;11.13;5.68;;;12.00;99.90;;;;;;4988980;28;20042;-72
2022/10/31 04:08:17;;;;;;;10.70;5.07;;;12.00;99.90;;;;;;4979271;28;20117;-72
2022/10/31 04:10:46;;;;;;;10.48;5.82;;;11.90;99.90;;;;;;4987308;28;20117;-72
2022/10/31 04:13:17;;;;;;;9.25;5.13;;;11.80;99.90;;;;;;4969108;28;20054;-72
2022/10/31 04:15:44;;;;;;;10.98;5.32;;;11.90;99.90;;;;;;4990812;28;20392;-72
2022/10/31 04:18:10;;;;;;;10.27;5.47;;;11.90;99.90;;;;;;4981333;28;20050;-72
2022/10/31 04:20:40;;;;;;;9.80;5.38;;;11.90;99.90;;;;;;4983556;28;20201;-72
2022/10/31 04:23:18;;;;;;;12.48;5.70;;;11.80;99.90;;;;;;4984389;28;20042;-73
2022/10/31 04:25:43;;;;;;;9.88;5.50;;;11.80;99.90;;;;;;4985184;28;20412;-72
2022/10/31 04:28:09;;;;;;;8.93;5.07;;;11.80;99.90;;;;;;4989911;28;20050;-72
2022/10/31 04:30:34;;;;;;;11.87;5.87;;;11.80;99.90;;;;;;4967917;28;20062;-72
2022/10/31 04:33:00;;;;;;;11.00;5.83;;;11.80;99.90;;;;;;4985256;28;20042;-72
2022/10/31 04:35:26;;;;;;;12.93;5.53;;;11.80;99.90;;;;;;4985505;28;20068;-72
2022/10/31 04:37:51;;;;;;;10.73;5.82;;;11.90;99.90;;;;;;4984778;28;20042;-72
2022/10/31 04:40:17;;;;;;;11.40;6.00;;;11.80;99.90;;;;;;4967274;28;20068;-72
2022/10/31 04:42:43;;;;;;;9.90;5.93;;;11.80;99.90;;;;;;4984428;28;20739;-72
2022/10/31 04:45:08;;;;;;;14.30;6.03;;;11.90;99.90;;;;;;4985358;28;20085;-72
2022/10/31 04:47:34;;;;;;;11.40;6.10;;;11.80;99.90;;;;;;4968089;28;20292;-72
2022/10/31 04:50:00;;;;;;;11.80;6.13;;;11.80;99.90;;;;;;4984153;28;20041;-72
2022/10/31 04:52:29;;;;;;;15.48;6.47;;;11.80;99.90;;;;;;4987386;28;20050;-72
2022/10/31 04:54:55;;;;;;;12.63;6.15;;;11.70;99.90;;;;;;4982094;28;20069;-72
2022/10/31 04:57:20;;;;;;;15.40;6.00;;;11.70;99.90;;;;;;4973870;28;20432;-72
2022/10/31 04:59:46;;;;;;;13.00;5.60;;;11.80;99.90;;;;;;4989071;28;20610;-72
2022/10/31 05:02:11;;;;;;;13.97;6.17;;;11.70;99.90;;;;;;4977274;28;20064;-72
2022/10/31 05:04:37;;;;;;;10.10;6.00;;;11.80;99.90;;;;;;4971321;28;20129;-72
2022/10/31 05:07:03;;;;;;;11.00;5.97;;;11.80;99.90;;;;;;4988536;28;20472;-72
2022/10/31 05:09:28;;;;;;;11.00;6.67;;;11.80;99.90;;;;;;4999716;28;20035;-72
2022/10/31 05:11:54;;;;;;;10.13;5.40;;;11.80;99.90;;;;;;4994468;28;20037;-72
2022/10/31 05:14:19;;;;;;;10.70;6.13;;;11.80;99.90;;;;;;4979946;28;20040;-72
2022/10/31 05:16:45;;;;;;;10.80;6.73;;;11.80;99.90;;;;;;4990914;28;20147;-72
2022/10/31 05:19:10;;;;;;;10.10;5.97;;;11.80;99.90;;;;;;4986826;28;20034;-72
2022/10/31 05:21:36;;;;;;;11.23;6.73;;;11.80;99.90;;;;;;4974259;28;20126;-72
2022/10/31 05:24:02;;;;;;;13.40;6.93;;;11.70;99.90;;;;;;4974384;28;20407;-72
2022/10/31 05:26:28;;;;;;;11.23;6.78;;;11.70;99.90;;;;;;4986001;28;20560;-72
2022/10/31 05:28:53;;;;;;;11.40;6.17;;;11.70;99.90;;;;;;4972667;28;20451;-72
2022/10/31 05:31:19;;;;;;;10.50;6.20;;;11.70;99.90;;;;;;4991320;28;20656;-72
2022/10/31 05:33:44;;;;;;;11.50;6.73;;;11.80;99.90;;;;;;4988240;28;20128;-72
2022/10/31 05:36:10;;;;;;;11.03;6.33;;;11.70;99.90;;;;;;4976305;28;20046;-72
2022/10/31 05:38:36;;;;;;;12.27;6.60;;;11.70;99.90;;;;;;4987406;28;20043;-72
2022/10/31 05:41:01;;;;;;;11.13;6.33;;;11.80;99.90;;;;;;4992970;28;20042;-72
2022/10/31 05:43:28;;;;;;;12.57;7.13;;;11.70;99.90;;;;;;4985451;28;20195;-72
2022/10/31 05:45:54;;;;;;;;;;;11.70;99.90;;;;;;4970309;28;20038;-72
2022/10/31 05:48:19;;;;;;;10.25;6.07;;;11.60;99.90;;;;;;4993995;28;19921;-72
2022/10/31 05:50:48;;;;;;;12.85;6.00;;;11.60;99.90;;;;;;4978457;28;20049;-72
2022/10/31 05:53:13;;;;;;;11.57;5.75;;;11.60;99.90;;;;;;4987403;28;20049;-71
2022/10/31 05:55:43;;;;;;;11.07;6.72;;;11.60;99.90;;;;;;4987340;28;20392;-72
2022/10/31 05:58:09;;;;;;;10.70;6.43;;;11.60;99.90;;;;;;4990363;28;20070;-71
2022/10/31 06:00:35;;;;;;;11.82;6.35;;;11.60;99.90;;;;;;4987722;28;20074;-71
2022/10/31 06:03:03;;;;;;;11.52;6.57;;;11.60;99.90;;;;;;4966413;28;20070;-72
2022/10/31 06:05:30;;;;;;;10.48;6.63;;;11.50;99.90;;;;;;4989832;28;20057;-72
2022/10/31 06:07:56;;;;;;;;;;;11.60;99.90;;;;;;4992211;28;20038;-71
2022/10/31 06:10:21;;;;;;;11.10;5.88;;;11.40;99.90;;;;;;4985920;28;20009;-71
2022/10/31 06:12:47;;;;;;;12.60;7.07;;;11.40;99.90;;;;;;4989838;28;20047;-72
2022/10/31 06:15:14;;;;;;;10.05;6.10;;;11.30;99.90;;;;;;4993627;28;20042;-72
2022/10/31 06:17:39;;;;;;;11.65;6.93;;;11.30;99.90;;;;;;4971396;28;20465;-72
2022/10/31 06:20:06;;;;;;;12.77;7.07;;;11.20;99.90;;;;;;4984910;28;20109;-72
2022/10/31 06:22:31;;;;;;;;;;;11.20;99.90;;;;;;4992713;28;20299;-72
2022/10/31 06:24:57;;;;;;;11.95;6.43;;;11.20;99.90;;;;;;4985191;28;19924;-73
2022/10/31 06:27:23;;;;;;;12.93;6.30;;;11.10;99.90;;;;;;4988867;28;20165;-72
2022/10/31 06:29:49;;;;;;;10.20;6.55;;;11.10;99.90;;;;;;4985947;28;20046;-72
2022/10/31 06:32:15;;;;;;;13.13;6.88;;;11.10;99.90;;;;;;4983993;28;20084;-72
2022/10/31 06:34:41;;;;;;;10.88;7.15;;;11.00;99.90;;;;;;4987562;28;20125;-72
2022/10/31 06:37:08;;;;;;;10.98;7.30;;;11.00;99.90;;;;;;4984127;28;20125;-72
2022/10/31 06:39:34;;;;;;;10.80;6.43;;;11.00;99.90;;;;;;4986314;28;20217;-72
2022/10/31 06:42:00;;;;;;;10.35;5.82;;;11.00;99.90;;;;;;4989256;28;20125;-73
2022/10/31 06:44:26;;;;;;;13.13;6.40;;;11.00;99.90;;;;;;4982234;28;20113;-72
2022/10/31 06:46:51;;;;;;;11.03;6.47;;;10.90;99.90;;;;;;4964380;28;20114;-73
2022/10/31 06:49:17;;;;;;;11.40;6.30;;;10.90;99.90;;;;;;4987479;28;20333;-72
2022/10/31 06:51:43;;;;;;;10.98;6.47;;;10.90;99.90;;;;;;4984881;28;20050;-73
2022/10/31 06:54:09;;;;;;;13.20;6.20;;;10.90;99.90;;;;;;4987120;28;20045;-74
2022/10/31 06:56:36;;;;;;;13.30;6.60;;;10.80;99.90;;;;;;4969551;28;20226;-73
2022/10/31 06:59:02;;;;;;;15.27;7.35;;;10.80;99.90;;;;;;4993735;28;20776;-72
2022/10/31 07:01:28;;;;;;;13.83;6.53;;;10.80;99.90;;;;;;4986309;28;20115;-72
2022/10/31 07:03:53;;;;;;;10.17;6.50;;;10.80;99.90;;;;;;4989784;28;20125;-72
2022/10/31 07:06:19;;;;;;;14.50;7.23;;;10.70;99.90;;;;;;4984897;28;20447;-73
2022/10/31 07:08:44;;;;;;;12.83;6.77;;;10.70;99.90;;;;;;4985379;28;20041;-73
2022/10/31 07:11:10;;;;;;;9.37;5.90;;;10.80;99.90;;;;;;4973552;28;20053;-73
2022/10/31 07:13:35;;;;;;;16.00;6.27;;;10.70;99.90;;;;;;4971322;28;20199;-73
2022/10/31 07:16:04;;;;;;;11.37;6.70;;;10.70;99.90;;;;;;4990809;28;20062;-73
2022/10/31 07:18:29;;;;;;;11.80;6.38;;;10.80;99.90;;;;;;4973674;28;20058;-73
2022/10/31 07:20:55;;;;;;;9.93;6.30;;;10.70;99.90;;;;;;4992930;28;20046;-79
2022/10/31 07:23:21;;;;;;;12.20;6.50;;;10.70;99.90;;;;;;4980990;28;20125;-72
2022/10/31 07:25:47;;;;;;;10.07;6.20;;;10.80;99.90;;;;;;4984263;28;20487;-72
2022/10/31 07:28:13;;;;;;;12.03;6.30;;;10.80;99.90;;;;;;4965963;28;20146;-73
2022/10/31 07:30:39;;;;;;;8.73;5.75;;;10.80;99.90;;;;;;4984324;28;20073;-73
2022/10/31 07:33:05;;;;;;;11.90;6.82;;;10.80;99.90;;;;;;4983563;28;20053;-73
2022/10/31 07:35:32;;;;;;;10.18;6.78;;;10.80;99.90;;;;;;4984684;28;20236;-73
2022/10/31 07:37:57;;;;;;;12.10;6.85;;;10.90;99.90;;;;;;4988261;28;20042;-72
2022/10/31 07:40:24;;;;;;;16.50;6.85;;;10.90;99.90;;;;;;4983908;28;20108;-73
2022/10/31 07:42:51;;;;;;;11.15;7.07;;;10.90;99.90;;;;;;4997159;28;20128;-72
2022/10/31 07:45:19;;;;;;;17.60;6.90;;;11.00;99.90;;;;;;4987984;28;20116;-72
2022/10/31 07:47:47;;;;;;;11.10;6.75;;;11.00;99.90;;;;;;4993733;28;20140;-73
2022/10/31 07:50:21;;;;;;;11.60;6.20;;;11.00;99.90;;;;;;4982780;28;20137;-73
2022/10/31 07:52:47;;;;;;;12.25;6.90;;;11.10;99.90;;;;;;4987208;28;20361;-73
2022/10/31 07:55:14;;;;;;;10.77;6.65;;;11.10;99.90;;;;;;4989914;28;20053;-73
2022/10/31 07:57:40;;;;;;;10.77;6.40;;;11.20;99.90;;;;;;4966201;28;20129;-72
2022/10/31 08:00:08;;;;;;;12.80;7.47;;;11.20;99.90;;;;;;4966826;28;20046;-72
2022/10/31 08:02:33;;;;;;;10.05;6.70;;;11.20;99.90;;;;;;4983374;28;20326;-73
2022/10/31 08:04:59;;;;;;;11.77;6.37;;;11.30;99.90;;;;;;4990785;28;20132;-72
2022/10/31 08:07:26;;;;;;;12.45;6.32;;;11.30;99.90;;;;;;4984656;28;20273;-72
2022/10/31 08:09:51;;;;;;;12.45;7.32;;;11.40;99.90;;;;;;4997390;28;20053;-72
2022/10/31 08:12:17;;;;;;;12.43;6.97;;;11.40;99.90;;;;;;4992342;28;20033;-73
2022/10/31 08:14:44;;;;;;;12.43;6.88;;;11.40;99.90;;;;;;4971626;28;20755;-72
2022/10/31 08:17:09;;;;;;;11.98;6.53;;;11.40;99.90;;;;;;4982775;28;20038;-72
2022/10/31 08:19:35;;;;;;;11.63;6.75;;;11.50;99.90;;;;;;4982686;28;20043;-72
2022/10/31 08:22:01;;;;;;;10.60;6.77;;;11.40;99.90;;;;;;4988239;28;20108;-72
2022/10/31 08:24:26;;;;;;;10.57;6.60;;;11.50;99.90;;;;;;4995089;28;20555;-72
2022/10/31 08:26:52;;;;;;;10.37;6.57;;;11.50;99.90;;;;;;4986583;28;20137;-72
2022/10/31 08:29:17;;;;;;;10.20;6.83;;;11.60;99.90;;;;;;4993155;28;20113;-72
2022/10/31 08:31:43;;;;;;;12.67;6.93;;;11.60;99.90;;;;;;4976568;28;20113;-72
2022/10/31 08:34:09;;;;;;;13.02;6.78;;;11.70;99.90;;;;;;4974372;28;20176;-72
2022/10/31 08:36:34;;;;;;;11.15;6.63;;;11.70;99.90;;;;;;4978173;28;20100;-75
2022/10/31 08:39:01;;;;;;;12.23;7.20;;;11.70;99.90;;;;;;4975625;28;20046;-73
2022/10/31 08:41:26;;;;;;;15.57;7.15;;;11.70;99.90;;;;;;4996890;28;20088;-73
2022/10/31 08:43:52;;;;;;;12.27;6.67;;;11.80;99.90;;;;;;4996869;28;20337;-72
2022/10/31 08:46:17;;;;;;;10.43;6.53;;;11.90;99.90;;;;;;4988538;28;20058;-72
2022/10/31 08:48:43;;;;;;;12.10;6.40;;;11.90;99.90;;;;;;4990968;28;20119;-72
2022/10/31 08:51:10;;;;;;;11.60;6.70;;;11.90;99.90;;;;;;4983506;28;20281;-72
2022/10/31 08:53:36;;;;;;;11.80;7.00;;;12.00;99.90;;;;;;4997513;28;20521;-72
2022/10/31 08:56:01;;;;;;;11.48;6.72;;;12.10;99.90;;;;;;4993954;28;20132;-73
2022/10/31 08:58:27;;;;;;;12.93;6.70;;;12.00;99.90;;;;;;5004999;28;20052;-73
2022/10/31 09:00:56;;;;;;;18.40;7.30;;;12.20;99.90;;;;;;4997169;28;20559;-73
2022/10/31 09:03:27;;;;;;;11.52;7.57;;;12.20;99.90;;;;;;5014987;23;20522;-71
2022/10/31 09:05:58;;;;;;;18.73;8.55;;;12.30;99.90;;;;;;4994109;28;20045;-71
2022/10/31 09:08:24;;;;;;;14.88;7.78;;;12.40;99.90;;;;;;4996333;28;20038;-71
2022/10/31 09:10:50;;;;;;;18.25;8.23;;;12.50;99.90;;;;;;4991900;28;20168;-71
2022/10/31 09:13:18;;;;;;;17.33;7.18;;;12.50;99.90;;;;;;4988438;28;20392;-72
2022/10/31 09:15:45;;;;;;;11.57;7.22;;;12.50;99.90;;;;;;4987645;28;20072;-71
2022/10/31 09:18:12;;;;;;;11.60;6.47;;;12.70;99.90;;;;;;4992294;28;20085;-71
2022/10/31 09:20:40;;;;;;;16.80;7.50;;;12.70;99.90;;;;;;4983795;28;20425;-71
2022/10/31 09:23:17;;;;;;;14.65;7.22;;;12.80;99.90;;;;;;4987773;28;20061;-71
2022/10/31 09:25:44;;;;;;;11.68;6.85;;;12.90;99.90;;;;;;4984023;28;20042;-71
2022/10/31 09:28:11;;;;;;;14.18;6.97;;;13.00;99.90;;;;;;4986863;28;20195;-71
2022/10/31 09:30:38;;;;;;;12.98;6.85;;;13.10;99.90;;;;;;4985870;28;20046;-71
2022/10/31 09:33:05;;;;;;;14.57;7.30;;;13.20;99.90;;;;;;4989778;28;20046;-71
2022/10/31 09:35:32;;;;;;;14.07;7.43;;;13.30;99.90;;;;;;4991471;28;20065;-71
2022/10/31 09:38:08;;;;;;;13.63;7.10;;;13.30;99.90;;;;;;4986171;28;20134;-71
2022/10/31 09:40:44;;;;;;;12.57;6.35;;;13.40;99.90;;;;;;4984547;28;20145;-71
2022/10/31 09:43:31;;;;;;;10.38;6.45;;;13.50;99.90;;;;;;4993352;28;20050;-72
2022/10/31 09:46:15;;;;;;;12.63;6.93;;;13.50;99.90;;;;;;4986020;28;20069;-71
2022/10/31 09:49:01;;;;;;;13.10;6.57;;;13.60;99.90;;;;;;4991350;28;20053;-71
2022/10/31 09:51:40;;;;;;;12.48;7.00;;;13.70;99.90;;;;;;4990204;28;20137;-71
2022/10/31 09:54:38;;;;;;;11.95;6.90;;;13.80;99.90;;;;;;4983162;28;20085;-72
2022/10/31 09:57:05;;;;;;;;;;;13.80;99.90;;;;;;4985772;28;20487;-71
2022/10/31 09:59:34;;;;;;;12.63;6.25;;;13.80;99.90;;;;;;4990137;28;20033;-71
2022/10/31 10:02:05;;;;;;;14.20;6.82;;;13.80;99.90;;;;;;4983399;28;20384;-72
2022/10/31 10:04:37;;;;;;;11.30;6.80;;;13.80;99.90;;;;;;4980485;28;20522;-71
2022/10/31 10:07:10;;;;;;;14.98;7.10;;;13.80;99.90;;;;;;4980685;28;20428;-72
2022/10/31 10:09:36;;;;;;;15.25;6.70;;;13.90;99.90;;;;;;4975661;28;20959;-72
2022/10/31 10:12:23;;;;;;;10.90;6.85;;;14.00;99.90;;;;;;4987858;28;20046;-72
2022/10/31 10:15:23;;;;;;;17.83;8.07;;;14.20;99.90;;;;;;5006034;28;20126;-71
2022/10/31 10:18:07;;;;;;;14.60;7.65;;;14.30;99.90;;;;;;4984805;28;20629;-72
2022/10/31 10:20:58;;;;;;;15.25;7.28;;;14.40;99.90;;;;;;4994252;28;20398;-71
2022/10/31 10:24:11;;;;;;;18.35;7.38;;;14.60;99.90;;;;;;4996027;28;20116;-72
2022/10/31 10:26:42;;;;;;;12.20;7.10;;;14.80;99.90;;;;;;4985268;28;20046;-72
2022/10/31 10:29:31;;;;;;;17.33;9.60;;;15.00;99.90;;;;;;4985585;28;20124;-71
2022/10/31 10:32:04;;;;;;;17.55;8.10;;;15.10;99.90;;;;;;5002090;28;20069;-72
2022/10/31 10:34:36;;;;;;;13.65;6.90;;;15.20;99.90;;;;;;4991220;28;20500;-71
2022/10/31 10:37:08;;;;;;;13.95;6.85;;;15.20;99.90;;;;;;4996454;28;20050;-71
2022/10/31 10:39:45;;;;;;;16.65;7.68;;;15.20;99.90;;;;;;4987272;28;20038;-72
2022/10/31 10:47:44;;;;;;;13.48;6.65;;;15.10;99.90;;;;;;4983253;28;20564;-72
2022/10/31 10:50:20;;;;;;;13.25;6.82;;;15.10;99.90;;;;;;4991057;28;20034;-74
2022/10/31 10:53:01;;;;;;;12.90;7.30;;;15.20;99.90;;;;;;4987745;28;20408;-74
2022/10/31 10:55:49;;;;;;;14.68;6.68;;;15.30;99.90;;;;;;4987704;28;20498;-72
2022/10/31 10:58:14;;;;;;;;;;;15.40;99.90;;;;;;4998882;28;20104;-72
2022/10/31 11:00:46;;;;;;;16.02;6.85;;;15.40;99.90;;;;;;4986348;28;20016;-72
2022/10/31 11:03:14;;;;;;;12.45;6.38;;;15.50;99.90;;;;;;4991472;28;20380;-73
2022/10/31 11:06:01;;;;;;;12.10;6.13;;;15.50;99.90;;;;;;4982065;28;20126;-72
2022/10/31 11:08:33;;;;;;;;;;;15.50;99.90;;;;;;4988268;28;20480;-72
2022/10/31 11:11:18;;;;;;;14.48;6.45;;;15.50;99.90;;;;;;4994460;28;19968;-74
2022/10/31 11:13:49;;;;;;;10.88;6.38;;;15.50;99.90;;;;;;4980241;28;20468;-72
2022/10/31 11:16:29;;;;;;;10.85;5.72;;;15.50;99.90;;;;;;4969407;28;20524;-72
2022/10/31 11:19:07;;;;;;;17.05;6.85;;;15.40;99.90;;;;;;4990739;28;20053;-73
2022/10/31 11:21:34;;;;;;;13.02;6.38;;;15.40;99.90;;;;;;4985821;28;20053;-72
2022/10/31 11:24:11;;;;;;;12.40;5.70;;;15.30;99.90;;;;;;4994776;28;20042;-72
2022/10/31 11:26:39;;;;;;;13.02;6.68;;;15.30;99.90;;;;;;4982478;28;20222;-72
2022/10/31 11:29:05;;;;;;;12.75;6.80;;;15.20;99.90;;;;;;4979214;28;20428;-72
2022/10/31 11:31:34;;;;;;;12.35;7.32;;;15.20;99.90;;;;;;4982742;28;20042;-72
2022/10/31 11:34:06;;;;;;;15.95;7.70;;;15.20;99.90;;;;;;4987118;28;20111;-72
2022/10/31 11:36:35;;;;;;;17.70;8.55;;;15.20;99.90;;;;;;4979683;28;20070;-72
2022/10/31 11:39:04;;;;;;;14.52;7.00;;;15.20;99.90;;;;;;4988180;28;20101;-72
2022/10/31 11:41:35;;;;;;;17.58;7.35;;;15.20;99.90;;;;;;4978333;28;20042;-72
2022/10/31 11:44:13;;;;;;;13.73;7.82;;;15.20;99.90;;;;;;4982362;28;20049;-72
2022/10/31 11:46:54;;;;;;;15.60;7.85;;;15.20;99.90;;;;;;4991901;28;20446;-72
2022/10/31 11:49:29;;;;;;;15.50;6.78;;;15.20;99.90;;;;;;4986722;28;20042;-72
2022/10/31 11:51:57;;;;;;;15.32;7.57;;;15.20;99.90;;;;;;4989841;28;20052;-72
2022/10/31 11:54:29;;;;;;;14.25;7.38;;;15.30;99.90;;;;;;4988637;28;20549;-73
2022/10/31 11:56:55;;;;;;;11.48;5.60;;;15.30;99.90;;;;;;4985783;28;20053;-72
2022/10/31 11:59:27;;;;;;;8.40;5.05;;;15.30;99.90;;;;;;4981775;28;20042;-73
2022/10/31 12:01:55;;;;;;;9.30;4.82;;;15.40;99.90;;;;;;4976684;28;20217;-73
2022/10/31 12:04:35;;;;;;;8.70;4.53;;;15.50;99.90;;;;;;4983333;28;20042;-73
2022/10/31 12:07:01;;;;;;;11.60;5.25;;;15.50;99.90;;;;;;4976276;28;20035;-73
2022/10/31 12:09:30;;;;;;;11.38;4.60;;;15.60;99.90;;;;;;4991988;28;20049;-75
2022/10/31 12:12:14;;;;;;;10.18;4.50;;;15.70;99.90;;;;;;4984704;28;20211;-73
2022/10/31 12:14:48;;;;;;;8.95;4.35;;;15.70;99.90;;;;;;4997505;28;20379;-74
2022/10/31 12:17:34;;;;;;;7.57;3.90;;;15.80;99.90;;;;;;4978546;28;20070;-73
2022/10/31 12:20:23;;;;;;;10.07;4.03;;;15.80;99.90;;;;;;4983544;28;20057;-77
2022/10/31 12:23:17;;;;;;;6.53;3.55;;;15.80;99.90;;;;;;4995891;28;20136;-73
2022/10/31 12:25:54;;;;;;;7.68;3.78;;;15.80;99.90;;;;;;4981485;28;20116;-73
2022/10/31 12:28:39;;;;;;;;;;;15.80;99.90;;;;;;4989639;28;20117;-72
2022/10/31 12:31:27;;;;;;;11.07;4.20;;;15.70;99.90;;;;;;4981631;28;19918;-74
2022/10/31 12:34:16;;;;;;;8.80;4.57;;;15.70;99.90;;;;;;4980555;28;20078;-73
2022/10/31 12:37:03;;;;;;;9.23;3.80;;;15.60;99.90;;;;;;4980666;28;20547;-72
2022/10/31 12:39:46;;;;;;;9.23;4.05;;;15.60;99.90;;;;;;4976623;28;20089;-72
2022/10/31 12:42:27;;;;;;;10.07;4.38;;;15.60;99.90;;;;;;4989455;28;20061;-72
2022/10/31 12:44:59;;;;;;;9.65;4.60;;;15.60;99.90;;;;;;4982559;28;20046;-72
2022/10/31 12:47:42;;;;;;;6.63;3.55;;;15.60;99.90;;;;;;4986280;28;20115;-72
2022/10/31 12:50:34;;;;;;;6.10;3.72;;;15.50;99.90;;;;;;4976778;28;20069;-73
2022/10/31 12:53:06;;;;;;;7.90;3.50;;;15.50;99.90;;;;;;4978190;28;20050;-72
2022/10/31 12:55:37;;;;;;;7.75;4.20;;;15.50;99.90;;;;;;4978394;28;20508;-72
2022/10/31 12:58:10;;;;;;;10.13;4.10;;;15.60;99.90;;;;;;4969021;28;20455;-73
2022/10/31 13:00:40;;;;;;;8.43;3.97;;;15.60;99.90;;;;;;4986914;28;20463;-73
2022/10/31 13:03:22;;;;;;;6.88;3.80;;;15.60;99.90;;;;;;4986721;28;20050;-73